Date,TemperatureHighF,TemperatureAvgF,TemperatureLowF,DewpointHighF,DewpointAvgF,DewpointLowF,HumidityHigh,HumidityAvg,HumidityLow,PressureMaxIn,PressureMinIn,WindSpeedMaxMPH,WindSpeedAvgMPH,GustSpeedMaxMPH,PrecipitationSumIn
2014-1-1,43.0,31.6,19.2,31.3,23.2,15.1,93,73,42,29.32,29.09,8,2,0,0.00
2014-1-2,36.5,33.4,26.8,35.5,31.8,26.1,97,94,89,29.09,28.48,11,5,0,0.02
2014-1-3,26.4,16.8,8.6,25.7,11.4,2.1,97,80,64,29.40,28.43,21,6,0,0.01
2014-1-4,35.1,19.2,3.2,23.6,11.6,0.5,93,73,48,29.46,29.21,9,2,0,0.09
2014-1-5,54.1,39.8,25.5,53.8,36.8,24.0,99,89,74,29.21,28.67,6,2,0,0.25
2014-1-6,56.3,42.3,16.7,56.0,37.6,-0.4,99,84,42,28.78,28.38,16,7,0,0.52
2014-1-7,15.4,9.1,4.1,-1.5,-6.6,-11.2,62,48,38,29.34,28.80,18,7,0,0.03
2014-1-8,28.6,16.0,6.8,12.0,2.1,-2.2,70,55,31,29.49,29.35,10,2,0,0.00
2014-1-9,37.0,25.8,20.8,22.2,16.7,10.9,90,69,46,29.55,29.41,11,2,0,0.00
2014-1-10,46.2,35.4,23.2,45.9,33.8,20.6,99,94,88,29.49,29.08,5,1,0,0.33
2014-1-11,59.4,52.9,46.2,59.1,52.6,45.9,99,99,97,29.07,28.34,14,6,0,0.43
2014-1-12,51.1,42.5,31.3,50.6,34.6,27.9,98,75,53,29.03,28.38,14,4,0,0.03
2014-1-13,53.4,42.2,29.3,42.3,36.1,27.4,98,80,62,29.06,28.83,12,4,0,0.00
2014-1-14,49.3,46.3,41.4,48.5,44.5,40.9,98,94,82,28.82,28.57,8,3,0,0.84
2014-1-15,45.7,39.8,34.9,42.9,38.9,34.6,99,97,89,28.92,28.77,4,1,0,0.00
2014-1-16,41.2,36.5,26.8,40.3,32.0,23.4,99,84,73,28.89,28.77,8,3,0,0.00
2014-1-17,48.0,37.2,24.3,36.0,31.7,22.3,98,81,59,28.90,28.76,8,2,0,0.01
2014-1-18,41.9,34.2,22.6,36.4,26.0,11.8,96,73,53,28.86,28.60,12,4,0,0.01
2014-1-19,47.1,32.2,20.1,27.3,19.8,11.6,72,61,43,28.84,28.62,9,3,0,0.00
2014-1-20,53.8,41.7,34.5,30.0,27.8,25.7,72,59,38,28.80,28.52,14,4,0,0.00
2014-1-21,34.3,25.2,13.3,25.9,19.9,10.4,90,80,67,28.83,28.65,20,8,0,0.01
2014-1-22,21.0,11.8,5.4,10.0,2.6,-2.0,88,67,47,28.96,28.65,16,6,0,0.00
2014-1-23,25.2,14.9,5.9,6.7,3.0,-2.0,72,59,42,29.25,28.95,12,4,0,0.00
2014-1-24,22.6,14.2,7.9,5.4,1.5,-1.0,70,57,37,29.34,29.07,11,4,0,0.00
2014-1-25,31.5,25.6,18.9,23.3,14.7,4.9,88,64,48,29.05,28.40,16,7,0,0.01
2014-1-26,36.1,27.2,17.2,31.7,13.5,3.4,84,57,34,28.85,28.47,12,4,0,0.00
2014-1-27,49.3,37.1,23.7,34.4,23.8,2.4,83,60,36,29.01,28.56,11,6,0,0.00
2014-1-28,23.7,17.2,12.7,9.5,-1.1,-4.6,85,45,34,29.30,29.02,10,4,0,0.00
2014-1-29,25.2,15.5,11.5,9.5,4.2,-1.6,88,63,35,29.26,29.07,10,4,0,0.01
2014-1-30,31.1,16.3,5.0,13.1,5.6,-0.9,89,65,37,29.39,29.13,5,1,0,0.00
2014-1-31,43.7,28.6,13.3,26.5,20.2,10.4,88,72,39,29.16,29.03,5,1,0,0.00